Time;durP1;ratioP1;P1;durP2;ratioP2;P2;SDS_P1;SDS_P2;PMS_P1;PMS_P2;Temp;Humidity;BMP_temperature;BMP_pressure;BME280_temperature;BME280_humidity;BME280_pressure;Samples;Min_cycle;Max_cycle;Signal;HPM_P1;HPM_P2
2022/10/28 00:00:24;;;;;;;23.98;17.20;;;;;;;12.31;100.00;101705.28;5039444;28;20037;-85
2022/10/28 00:02:51;;;;;;;27.58;17.65;;;;;;;12.26;100.00;101706.34;5075520;23;20145;-85
2022/10/28 00:05:26;;;;;;;30.85;17.45;;;13.50;99.90;;;12.26;100.00;101698.44;5025021;28;20401;-86
2022/10/28 00:08:05;;;;;;;28.38;17.08;;;;;;;12.33;100.00;101699.91;5022712;28;20036;-84
2022/10/28 00:10:34;;;;;;;33.50;19.05;;;;;;;12.35;100.00;101700.72;5022017;28;20083;-85
2022/10/28 00:13:08;;;;;;;29.88;17.60;;;13.50;99.90;;;12.37;100.00;101693.59;5025704;28;20033;-85
2022/10/28 00:15:34;;;;;;;36.72;18.00;;;;;;;12.38;100.00;101689.19;5023334;28;20037;-85
2022/10/28 00:18:00;;;;;;;39.15;17.67;;;13.50;99.90;;;12.39;100.00;101698.81;5025519;28;20022;-84
2022/10/28 00:20:37;;;;;;;29.40;17.38;;;;;;;12.35;100.00;101697.22;5040988;28;20508;-84
2022/10/28 00:23:06;;;;;;;27.85;17.85;;;13.50;99.90;;;12.27;100.00;101689.59;5042532;22;20490;-85
2022/10/28 00:25:43;;;;;;;30.13;17.45;;;;;;;12.27;100.00;101700.16;5009445;28;20037;-85
2022/10/28 00:28:09;;;;;;;28.85;17.80;;;13.40;99.90;;;12.21;100.00;101695.13;5020287;28;20093;-85
2022/10/28 00:30:35;;;;;;;29.80;17.27;;;13.40;99.90;;;12.19;100.00;101684.59;5022302;28;20495;-85
2022/10/28 00:33:07;;;;;;;26.88;17.05;;;;;;;12.17;100.00;101682.94;5003831;28;20038;-84
2022/10/28 00:35:35;;;;;;;26.67;17.63;;;13.30;99.90;;;12.13;100.00;101684.84;5025018;28;20037;-85
2022/10/28 00:38:12;;;;;;;29.60;17.45;;;13.30;99.90;;;12.13;100.00;101681.34;5014607;28;20091;-86
2022/10/28 00:40:38;;;;;;;27.60;16.55;;;13.30;99.90;;;12.12;100.00;101675.22;5035469;28;20181;-84
2022/10/28 00:43:15;;;;;;;30.63;16.13;;;;;;;12.11;100.00;101668.19;5077382;22;20084;-85
2022/10/28 00:45:44;;;;;;;27.70;15.85;;;;;;;12.12;100.00;101667.28;5051536;28;20088;-86
2022/10/28 00:48:10;;;;;;;27.00;15.77;;;;;;;12.13;100.00;101658.44;5046285;28;20054;-85
2022/10/28 00:51:01;;;;;;;33.88;16.48;;;;;;;12.14;100.00;101661.91;5045154;28;20591;-85
2022/10/28 00:53:30;;;;;;;23.75;15.10;;;13.30;99.90;;;12.09;100.00;101660.34;5040728;28;20028;-85
2022/10/28 00:56:07;;;;;;;25.77;15.50;;;13.30;99.90;;;12.08;100.00;101661.25;5037259;28;20109;-84
2022/10/28 00:58:33;;;;;;;33.80;15.63;;;13.30;99.90;;;12.08;100.00;101663.88;5049975;28;20734;-86
2022/10/28 01:01:12;;;;;;;25.70;14.57;;;;;;;12.10;100.00;101659.41;5038126;28;20029;-86
2022/10/28 01:03:38;;;;;;;23.55;14.77;;;13.30;99.90;;;12.04;100.00;101661.44;5028405;22;20661;-84
2022/10/28 01:06:12;;;;;;;21.88;13.98;;;;;;;11.99;100.00;101663.41;4984750;28;20069;-85
2022/10/28 01:08:39;;;;;;;22.40;14.25;;;;;;;11.94;100.00;101654.78;5001906;28;20034;-84
2022/10/28 01:11:53;;;;;;;23.27;13.25;;;13.20;99.90;;;11.93;100.00;101648.63;5020227;28;20035;-84
2022/10/28 01:14:46;;;;;;;27.70;13.95;;;13.10;99.90;;;11.93;100.00;101651.28;4988420;28;20027;-84
2022/10/28 01:17:26;;;;;;;24.38;13.70;;;13.10;99.90;;;11.93;100.00;101642.50;4982231;28;20094;-85
2022/10/28 01:20:37;;;;;;;26.30;13.75;;;13.10;99.90;;;11.88;100.00;101627.69;4984343;28;20519;-86
2022/10/28 01:24:01;;;;;;;24.88;13.60;;;13.10;99.90;;;11.84;100.00;101625.22;5060484;23;20049;-86
2022/10/28 01:26:46;;;;;;;28.50;12.90;;;;;;;11.88;100.00;101629.47;4964942;28;20031;-84
2022/10/28 01:30:28;;;;;;;23.20;12.93;;;13.10;99.90;;;11.86;100.00;101624.22;5041283;28;20028;-86
2022/10/28 01:33:21;;;;;;;23.98;13.93;;;;;;;11.81;100.00;101623.50;5020033;28;20056;-87
2022/10/28 01:36:39;;;;;;;22.98;13.68;;;13.00;99.90;;;11.74;100.00;101622.03;5018928;28;20029;-85
2022/10/28 01:39:37;;;;;;;28.20;13.45;;;13.00;99.90;;;11.76;100.00;101619.34;4959531;28;20515;-84
2022/10/28 01:42:47;;;;;;;22.45;12.63;;;12.90;99.90;;;11.76;100.00;101622.00;5021098;23;20059;-85
2022/10/28 01:45:29;;;;;;;25.10;14.02;;;12.90;99.90;;;11.69;100.00;101616.09;5059305;28;20089;-86
2022/10/28 01:48:33;;;;;;;24.77;13.45;;;12.80;99.90;;;11.65;100.00;101620.59;5037106;28;20038;-84
2022/10/28 01:51:06;;;;;;;28.27;14.02;;;12.80;99.90;;;11.60;100.00;101624.34;5043746;28;20127;-85
2022/10/28 01:53:43;;;;;;;26.77;14.00;;;12.70;99.90;;;11.57;100.00;101642.91;5015522;28;20063;-85
2022/10/28 01:56:21;;;;;;;20.42;13.20;;;;;;;11.52;100.00;101636.94;5039848;28;20109;-84
2022/10/28 01:58:49;;;;;;;23.95;13.80;;;12.60;99.90;;;11.47;100.00;101637.09;5018011;28;20030;-85
2022/10/28 02:03:47;;;;;;;32.63;17.10;;;12.50;99.90;;;11.30;100.00;101616.59;5063055;23;20088;-85
2022/10/28 02:06:31;;;;;;;31.65;16.55;;;12.50;99.90;;;11.34;100.00;101614.69;5026568;28;20034;-85
2022/10/28 02:09:38;;;;;;;28.85;15.55;;;12.50;99.90;;;11.37;100.00;101626.00;5020558;28;20025;-85
2022/10/28 02:12:36;;;;;;;30.33;16.87;;;12.50;99.90;;;11.29;100.00;101623.66;5020597;28;20056;-85
2022/10/28 02:15:49;;;;;;;25.48;16.05;;;12.40;99.90;;;11.18;100.00;101614.41;5021292;28;20018;-85
2022/10/28 02:19:17;;;;;;;26.63;15.15;;;12.40;99.90;;;11.21;100.00;101612.53;5008178;28;20069;-84
2022/10/28 02:21:54;;;;;;;30.88;16.17;;;12.40;99.90;;;11.25;100.00;101603.59;5039396;23;20048;-86
2022/10/28 02:25:09;;;;;;;34.25;18.05;;;12.40;99.90;;;11.24;100.00;101604.50;5036676;28;20083;-85
2022/10/28 02:27:45;;;;;;;27.10;15.18;;;12.40;99.90;;;11.21;100.00;101606.38;5033983;28;20099;-85
2022/10/28 02:30:32;;;;;;;28.17;15.32;;;12.40;99.90;;;11.19;100.00;101598.53;5032909;28;20021;-85
2022/10/28 02:33:15;;;;;;;31.63;14.35;;;12.40;99.90;;;11.19;100.00;101598.53;5050904;28;20064;-84
2022/10/28 02:35:53;;;;;;;26.38;14.73;;;;;;;11.21;100.00;101591.44;5037287;28;20084;-85
2022/10/28 02:38:31;;;;;;;23.80;13.90;;;12.40;99.90;;;11.26;100.00;101607.09;5036850;28;20036;-83
2022/10/28 02:41:11;;;;;;;24.27;14.18;;;12.40;99.90;;;11.28;100.00;101600.84;5056403;28;20032;-84
2022/10/28 02:43:38;;;;;;;20.98;13.00;;;12.50;99.90;;;11.33;100.00;101610.34;5055687;22;20053;-84
2022/10/28 02:46:12;;;;;;;30.30;12.70;;;;;;;11.36;100.00;101599.69;5038344;28;20436;-85
2022/10/28 02:48:48;;;;;;;28.23;13.30;;;12.50;99.90;;;11.35;100.00;101597.97;5038698;28;20073;-84
2022/10/28 02:51:19;;;;;;;24.23;12.57;;;12.50;99.90;;;11.40;100.00;101603.94;5022561;28;20021;-82
2022/10/28 02:54:09;;;;;;;22.17;12.20;;;12.50;99.90;;;11.39;100.00;101604.88;4996551;28;20570;-84
2022/10/28 02:57:05;;;;;;;21.13;12.32;;;12.50;99.90;;;11.39;100.00;101607.50;5004767;28;20026;-84
2022/10/28 02:59:31;;;;;;;22.35;11.93;;;12.50;99.90;;;11.37;100.00;101607.56;4991072;28;20030;-85
2022/10/28 03:01:57;;;;;;;22.70;13.80;;;12.50;99.90;;;11.40;100.00;101611.84;5031165;23;20079;-83
2022/10/28 03:04:22;;;;;;;26.35;12.27;;;12.50;99.90;;;11.37;100.00;101602.28;5047047;28;20088;-85
2022/10/28 03:06:50;;;;;;;26.98;13.23;;;12.50;99.90;;;11.34;100.00;101605.03;5047161;28;20112;-84
2022/10/28 03:09:22;;;;;;;25.63;13.93;;;12.50;99.90;;;11.31;100.00;101597.22;5040507;28;20083;-85
2022/10/28 03:11:47;;;;;;;21.02;13.50;;;12.50;99.90;;;11.28;100.00;101586.81;5043747;28;20049;-84
2022/10/28 03:14:13;;;;;;;27.42;14.13;;;12.40;99.90;;;11.26;100.00;101583.34;5055630;28;20036;-85
2022/10/28 03:16:39;;;;;;;30.77;14.27;;;12.40;99.90;;;11.22;100.00;101582.59;5052838;28;20093;-84
2022/10/28 03:19:04;;;;;;;29.67;13.52;;;12.30;99.90;;;11.19;100.00;101573.97;5040751;28;20493;-84
2022/10/28 03:21:30;;;;;;;31.83;13.88;;;12.30;99.90;;;11.16;100.00;101579.31;5047941;28;20018;-86
2022/10/28 03:24:05;;;;;;;26.63;14.38;;;12.30;99.90;;;11.14;100.00;101584.63;5036830;28;20048;-84
2022/10/28 03:26:31;;;;;;;20.45;13.48;;;12.30;99.90;;;11.12;100.00;101585.59;5038447;28;20029;-85
2022/10/28 03:28:57;;;;;;;24.60;12.63;;;12.30;99.90;;;11.11;100.00;101602.34;5032193;28;20026;-84
2022/10/28 03:31:22;;;;;;;30.23;14.98;;;12.20;99.90;;;11.08;100.00;101598.06;5044913;28;20037;-84
2022/10/28 03:33:57;;;;;;;26.92;13.35;;;12.20;99.90;;;11.04;100.00;101591.16;5043228;28;20040;-84
2022/10/28 03:36:23;;;;;;;29.95;15.48;;;12.20;99.90;;;10.98;100.00;101575.56;5028836;28;20032;-86
2022/10/28 03:38:49;;;;;;;23.38;13.82;;;12.20;99.90;;;10.99;100.00;101579.91;5037514;28;20052;-86
2022/10/28 03:41:15;;;;;;;37.03;16.73;;;12.20;99.90;;;10.97;100.00;101577.34;5036262;28;20030;-85
2022/10/28 03:43:49;;;;;;;33.95;17.38;;;12.10;99.90;;;10.92;100.00;101573.13;5039404;28;20039;-84
2022/10/28 03:46:16;;;;;;;37.03;17.27;;;;;;;10.89;100.00;101576.75;5039166;28;20033;-85
2022/10/28 03:48:42;;;;;;;32.08;17.27;;;;;;;10.85;100.00;101581.25;5038680;28;20026;-85
2022/10/28 03:51:13;;;;;;;47.15;19.08;;;12.10;99.90;;;10.85;100.00;101589.16;5038879;28;20028;-85
2022/10/28 03:53:38;;;;;;;43.08;18.80;;;12.00;99.90;;;10.84;100.00;101597.97;5034523;28;20029;-84
2022/10/28 03:56:05;;;;;;;35.58;18.05;;;12.00;99.90;;;10.75;100.00;101592.16;5027503;28;20040;-85
2022/10/28 03:58:31;;;;;;;30.13;16.20;;;;;;;10.61;100.00;101580.31;5033478;28;20060;-85
2022/10/28 04:00:57;;;;;;;37.65;16.67;;;11.90;99.90;;;10.65;100.00;101576.66;5042628;28;20040;-83
2022/10/28 04:03:28;;;;;;;28.60;14.93;;;11.90;99.90;;;10.68;100.00;101580.94;5053974;28;20025;-85
2022/10/28 04:05:54;;;;;;;30.15;16.17;;;11.90;99.90;;;10.71;100.00;101577.34;5019596;28;20025;-84
2022/10/28 04:08:20;;;;;;;31.52;16.25;;;11.90;99.90;;;10.71;100.00;101582.63;5056126;28;20052;-84
2022/10/28 04:10:47;;;;;;;33.47;16.98;;;11.90;99.90;;;10.71;100.00;101575.56;5051644;28;20029;-84
2022/10/28 04:13:14;;;;;;;31.05;16.50;;;11.90;99.90;;;10.69;100.00;101574.78;5027846;28;20028;-83
2022/10/28 04:15:44;;;;;;;29.75;16.63;;;11.90;99.90;;;10.67;100.00;101579.25;5050605;28;20029;-84
2022/10/28 04:18:11;;;;;;;40.60;18.20;;;11.80;99.90;;;10.66;100.00;101580.16;5035629;28;20049;-85
2022/10/28 04:20:37;;;;;;;37.30;17.80;;;11.80;99.90;;;10.66;100.00;101581.00;5044304;28;20032;-86
2022/10/28 04:23:02;;;;;;;36.10;18.05;;;11.90;99.90;;;10.66;100.00;101594.16;5037114;28;20033;-85
2022/10/28 04:25:28;;;;;;;28.67;17.45;;;11.80;99.90;;;10.68;100.00;101599.38;5039006;28;20034;-85
2022/10/28 04:27:54;;;;;;;34.03;18.13;;;11.80;99.90;;;10.66;100.00;101582.78;5053490;28;20817;-84
2022/10/28 04:30:25;;;;;;;38.47;18.10;;;11.90;99.90;;;10.62;100.00;101573.25;5039550;28;20033;-84
2022/10/28 04:32:51;;;;;;;36.70;19.45;;;11.90;99.90;;;10.65;100.00;101566.13;5054934;28;20029;-85
2022/10/28 04:35:16;;;;;;;32.50;16.75;;;11.90;99.90;;;10.67;100.00;101574.84;5024848;28;20036;-85
2022/10/28 04:37:42;;;;;;;37.75;16.73;;;11.80;99.90;;;10.68;100.00;101584.44;5038635;28;20057;-84
2022/10/28 04:40:09;;;;;;;28.17;16.02;;;11.90;99.90;;;10.67;100.00;101585.38;5037721;28;20166;-83
2022/10/28 04:42:35;;;;;;;36.10;18.58;;;11.90;99.90;;;10.72;100.00;101587.84;5021757;28;20612;-84
2022/10/28 04:45:10;;;;;;;34.65;18.00;;;11.90;99.90;;;10.71;100.00;101570.31;5035815;28;20072;-84
2022/10/28 04:47:36;;;;;;;30.23;15.88;;;11.90;99.90;;;10.71;100.00;101564.19;5021417;28;20033;-84
2022/10/28 04:50:03;;;;;;;31.67;16.25;;;11.90;99.90;;;10.72;100.00;101564.13;5033889;28;20036;-85
2022/10/28 04:52:34;;;;;;;36.10;17.80;;;11.90;99.90;;;10.72;100.00;101552.75;5051622;28;20029;-82
2022/10/28 04:55:00;;;;;;;28.58;16.75;;;11.90;99.90;;;10.72;100.00;101552.75;5058246;28;20032;-84
2022/10/28 04:57:25;;;;;;;30.00;17.45;;;11.90;99.90;;;10.73;100.00;101550.03;5048602;28;20028;-85
2022/10/28 04:59:51;;;;;;;36.17;18.38;;;11.90;99.90;;;10.70;100.00;101547.53;5040037;28;20025;-85
2022/10/28 05:02:17;;;;;;;35.85;17.55;;;11.90;99.90;;;10.70;100.00;101547.53;5037066;28;20044;-84
2022/10/28 05:04:43;;;;;;;38.25;18.48;;;11.90;99.90;;;10.71;100.00;101545.75;5051982;28;20034;-85
2022/10/28 05:07:13;;;;;;;29.80;16.48;;;11.80;99.90;;;10.72;100.00;101542.22;5059509;28;20037;-84
2022/10/28 05:09:39;;;;;;;39.25;17.95;;;11.90;99.90;;;10.72;100.00;101540.44;5035886;28;20067;-84
2022/10/28 05:12:05;;;;;;;34.00;18.27;;;11.90;99.90;;;10.72;100.00;101537.78;5034131;28;20030;-84
2022/10/28 05:14:31;;;;;;;41.08;19.20;;;11.90;99.90;;;10.72;100.00;101536.94;5039245;28;20037;-85
2022/10/28 05:16:57;;;;;;;40.03;18.70;;;11.90;99.90;;;10.73;100.00;101538.66;5025400;28;20496;-84
2022/10/28 05:19:23;;;;;;;40.95;18.58;;;11.90;99.90;;;10.74;100.00;101543.88;5038762;28;20017;-85
2022/10/28 05:22:00;;;;;;;32.72;18.20;;;11.90;99.90;;;10.77;100.00;101543.75;5055000;28;20048;-85
2022/10/28 05:24:25;;;;;;;45.38;19.90;;;11.90;99.90;;;10.77;100.00;101540.28;5037155;28;20059;-84
2022/10/28 05:26:56;;;;;;;49.53;20.73;;;11.90;99.90;;;10.73;100.00;101528.13;5022971;28;20025;-84
2022/10/28 05:29:23;;;;;;;173.40;91.35;;;11.90;99.90;;;10.72;100.00;101532.53;5027252;28;20049;-86
2022/10/28 05:31:49;;;;;;;254.73;134.85;;;12.00;99.90;;;10.75;100.00;101524.50;5040298;28;20063;-83
2022/10/28 05:34:14;;;;;;;63.45;28.23;;;12.00;99.90;;;10.77;100.00;101538.50;5037916;28;20021;-84
2022/10/28 05:36:40;;;;;;;92.65;45.88;;;12.00;99.90;;;10.77;100.00;101535.00;5032960;28;20091;-83
2022/10/28 05:39:06;;;;;;;114.00;56.65;;;12.00;99.90;;;10.76;100.00;101535.94;5025315;28;20033;-84
2022/10/28 05:41:43;;;;;;;137.65;64.90;;;12.00;99.90;;;10.76;100.00;101536.78;5032303;28;20052;-86
2022/10/28 05:44:09;;;;;;;86.50;45.30;;;12.00;99.90;;;10.83;100.00;101540.06;5017882;28;20032;-84
2022/10/28 05:46:34;;;;;;;71.30;38.25;;;12.00;99.90;;;10.86;100.00;101537.31;5034044;28;20064;-84
2022/10/28 05:49:07;;;;;;;55.95;27.38;;;;;;;10.93;100.00;101536.19;5040996;28;20060;-85
2022/10/28 05:51:32;;;;;;;48.55;24.63;;;12.10;99.90;;;10.99;100.00;101541.25;5034634;28;20036;-85
2022/10/28 05:53:58;;;;;;;47.08;24.67;;;12.10;99.90;;;11.04;100.00;101549.84;5044132;28;20021;-84
2022/10/28 05:56:24;;;;;;;46.17;24.05;;;12.20;99.90;;;11.12;100.00;101549.56;5046086;28;20044;-83
2022/10/28 05:58:49;;;;;;;56.88;26.90;;;12.20;99.90;;;11.15;100.00;101545.97;5055651;28;20037;-85
2022/10/28 06:01:21;;;;;;;50.33;26.25;;;12.20;99.90;;;11.18;100.00;101537.94;5051343;28;20040;-84
2022/10/28 06:03:47;;;;;;;69.10;32.65;;;12.30;99.90;;;11.16;100.00;101523.97;5019006;28;20040;-85
2022/10/28 06:06:13;;;;;;;82.88;38.63;;;12.30;99.90;;;11.16;100.00;101523.97;5047860;28;20041;-84
2022/10/28 06:08:38;;;;;;;63.97;33.20;;;12.30;99.90;;;11.19;100.00;101529.13;5042877;28;20037;-84
2022/10/28 06:11:04;;;;;;;54.33;29.23;;;12.30;99.90;;;11.22;100.00;101529.00;5034508;28;20060;-83
2022/10/28 06:13:30;;;;;;;45.70;25.83;;;12.40;99.90;;;11.22;100.00;101535.13;5042171;28;20048;-85
2022/10/28 06:16:05;;;;;;;42.17;19.80;;;;;;;11.26;100.00;101535.91;5039029;28;20028;-84
2022/10/28 06:18:32;;;;;;;32.90;17.05;;;;;;;11.31;100.00;101543.63;5034546;28;20049;-85
2022/10/28 06:20:58;;;;;;;34.88;19.23;;;12.40;99.90;;;11.35;100.00;101539.97;5031715;28;20056;-83
2022/10/28 06:23:30;;;;;;;30.65;17.13;;;12.40;99.90;;;11.40;100.00;101541.53;5019455;28;20032;-83
2022/10/28 06:26:01;;;;;;;33.55;16.38;;;12.50;99.90;;;11.43;100.00;101549.31;5014038;28;20164;-83
2022/10/28 06:28:32;;;;;;;44.90;21.63;;;12.50;99.90;;;11.47;100.00;101536.91;5007780;28;20041;-83
2022/10/28 06:31:04;;;;;;;36.50;18.65;;;12.50;99.90;;;11.45;100.00;101533.44;5019400;28;20025;-83
2022/10/28 06:33:31;;;;;;;39.17;19.25;;;12.50;99.90;;;11.44;100.00;101529.94;5024283;28;20076;-83
2022/10/28 06:36:00;;;;;;;38.03;18.73;;;12.60;99.90;;;11.51;100.00;101538.47;5044607;28;20024;-85
2022/10/28 06:38:27;;;;;;;36.13;18.52;;;12.60;99.90;;;11.55;100.00;101532.16;5042295;28;20038;-81
2022/10/28 06:40:53;;;;;;;30.48;18.25;;;12.60;99.90;;;11.60;100.00;101538.16;5046932;28;20032;-83
2022/10/28 06:43:19;;;;;;;37.35;17.60;;;12.70;99.90;;;11.67;100.00;101547.53;5016603;28;20112;-83
2022/10/28 06:45:55;;;;;;;27.65;15.32;;;12.70;99.90;;;11.70;100.00;101558.00;5031751;28;20025;-83
2022/10/28 06:48:21;;;;;;;28.33;14.93;;;12.70;99.90;;;11.74;100.00;101555.22;5030961;28;20029;-83
2022/10/28 06:50:46;;;;;;;30.05;15.73;;;12.80;99.90;;;11.78;100.00;101564.75;5021322;28;20041;-82
2022/10/28 06:53:12;;;;;;;25.40;15.15;;;12.80;99.90;;;11.82;100.00;101567.19;5040357;28;20033;-83
2022/10/28 06:55:38;;;;;;;28.95;14.48;;;12.80;99.90;;;11.88;100.00;101567.00;5029661;28;20048;-83
2022/10/28 06:58:08;;;;;;;38.03;16.25;;;12.90;99.90;;;11.99;100.00;101565.72;5048664;28;20029;-84
2022/10/28 07:00:34;;;;;;;27.80;16.83;;;13.00;99.90;;;12.14;100.00;101572.16;5011902;28;20409;-82
2022/10/28 07:03:00;;;;;;;29.17;15.20;;;13.10;99.90;;;12.23;100.00;101571.81;5015997;28;20041;-83
2022/10/28 07:05:27;;;;;;;28.10;14.98;;;13.20;99.90;;;12.34;100.00;101574.03;5031794;28;20033;-83
2022/10/28 07:07:52;;;;;;;40.75;25.38;;;13.30;99.90;;;12.64;100.00;101577.19;5033706;28;20402;-83
2022/10/28 07:10:18;;;;;;;35.35;18.30;;;13.40;99.90;;;12.71;100.00;101576.00;5029752;28;20040;-82
2022/10/28 07:12:51;;;;;;;31.92;16.63;;;13.50;99.90;;;12.63;100.00;101575.47;5031435;28;20032;-83
2022/10/28 07:15:17;;;;;;;33.63;16.95;;;13.50;99.90;;;12.61;100.00;101593.16;5044184;28;20101;-82
2022/10/28 07:17:43;;;;;;;29.95;14.75;;;13.60;99.90;;;12.60;100.00;101599.38;5040277;28;20017;-83
2022/10/28 07:20:10;;;;;;;31.10;18.23;;;13.60;99.90;;;12.60;100.00;101591.44;5034674;28;20036;-82
2022/10/28 07:22:35;;;;;;;48.03;26.73;;;13.60;99.90;;;12.60;100.00;101602.03;5029893;28;20048;-82
2022/10/28 07:25:07;;;;;;;34.80;23.33;;;13.60;99.90;;;12.59;100.00;101593.25;5045475;28;20025;-84
2022/10/28 07:27:32;;;;;;;27.45;14.60;;;13.60;99.90;;;12.61;100.00;101599.31;5029569;28;20492;-83
2022/10/28 07:29:58;;;;;;;22.45;13.70;;;13.70;99.90;;;12.65;100.00;101600.03;5032305;28;20068;-82
2022/10/28 07:32:24;;;;;;;28.63;13.75;;;13.70;99.90;;;12.67;100.00;101601.69;5044350;28;20037;-83
2022/10/28 07:34:50;;;;;;;27.63;14.73;;;13.70;99.90;;;12.71;100.00;101589.22;5021955;28;20025;-82
2022/10/28 07:37:17;;;;;;;26.67;12.73;;;13.70;99.90;;;12.67;100.00;101584.97;5033174;28;20033;-82
2022/10/28 07:39:45;;;;;;;24.80;12.52;;;13.70;99.90;;;12.63;100.00;101583.38;5047247;28;20031;-83
2022/10/28 07:42:11;;;;;;;22.80;11.88;;;13.70;99.90;;;12.62;100.00;101586.97;5045694;28;20029;-82
2022/10/28 07:44:38;;;;;;;29.65;13.07;;;13.70;99.90;;;12.64;100.00;101585.97;5022477;28;20037;-82
2022/10/28 07:47:04;;;;;;;22.10;12.90;;;13.70;99.90;;;12.65;100.00;101594.75;5027601;28;20531;-82
2022/10/28 07:49:30;;;;;;;21.00;11.43;;;13.70;99.90;;;12.69;100.00;101597.19;5049468;28;20039;-83
2022/10/28 07:52:01;;;;;;;22.60;11.05;;;13.80;99.90;;;12.77;100.00;101591.59;5038392;28;20405;-82
2022/10/28 07:54:27;;;;;;;24.40;12.63;;;13.80;99.90;;;12.80;100.00;101595.91;5030866;28;20084;-83
2022/10/28 07:56:53;;;;;;;17.30;8.18;;;13.90;99.90;;;12.89;100.00;101598.16;5034436;28;20035;-83
2022/10/28 07:59:19;;;;;;;15.25;9.25;;;14.00;99.90;;;13.00;100.00;101595.94;5052016;28;20024;-82
2022/10/28 08:01:45;;;;;;;22.27;10.73;;;14.00;99.90;;;13.12;100.00;101597.16;5019688;28;20113;-82
2022/10/28 08:04:11;;;;;;;21.45;11.93;;;14.10;99.90;;;13.28;100.00;101589.41;5033402;28;20401;-83
2022/10/28 08:06:43;;;;;;;22.25;10.02;;;14.30;99.90;;;13.49;100.00;101591.13;5031686;28;20029;-83
2022/10/28 08:09:08;;;;;;;15.20;8.32;;;14.40;99.90;;;13.71;100.00;101588.41;5020645;28;20038;-83
2022/10/28 08:11:34;;;;;;;16.40;8.85;;;14.70;99.90;;;14.05;100.00;101585.94;5033326;28;20033;-83
2022/10/28 08:14:01;;;;;;;16.48;8.23;;;14.90;99.90;;;14.29;100.00;101583.91;5040459;28;20021;-83
2022/10/28 08:16:27;;;;;;;15.10;8.38;;;15.10;99.90;;;14.49;100.00;101585.56;5036728;28;20105;-82
2022/10/28 08:18:58;;;;;;;20.73;9.15;;;15.30;99.90;;;14.62;100.00;101593.81;5023527;28;20052;-84
2022/10/28 08:21:25;;;;;;;15.30;7.63;;;15.40;99.90;;;14.79;100.00;101590.31;5047405;28;20029;-84
2022/10/28 08:23:53;;;;;;;12.05;6.63;;;15.60;99.90;;;14.97;100.00;101586.75;5031219;28;20048;-83
2022/10/28 08:26:19;;;;;;;23.48;8.52;;;15.80;99.90;;;15.15;100.00;101590.22;5030160;28;20036;-83
2022/10/28 08:28:50;;;;;;;28.88;8.10;;;16.00;99.90;;;15.37;100.00;101593.47;5031416;28;20033;-83
2022/10/28 08:31:16;;;;;;;19.23;8.20;;;16.10;99.90;;;15.58;100.00;101583.50;5047581;28;20025;-83
2022/10/28 08:33:44;;;;;;;17.80;9.63;;;16.40;99.90;;;16.04;100.00;101569.50;5033308;28;20021;-84
2022/10/28 08:36:25;;;;;;;17.92;9.45;;;16.90;99.90;;;17.06;100.00;101574.28;5041298;28;20533;-84
2022/10/28 08:38:51;;;;;;;18.25;8.05;;;17.80;99.90;;;18.06;100.00;101574.28;5021081;28;20029;-83
2022/10/28 08:41:30;;;;;;;19.17;9.30;;;18.70;99.90;;;18.99;95.07;101572.53;5014981;28;20044;-82
2022/10/28 08:44:18;;;;;;;16.13;8.48;;;19.60;99.90;;;19.72;89.27;101575.50;5021195;28;20037;-82
2022/10/28 08:47:36;;;;;;;17.02;7.60;;;20.40;99.90;;;20.52;84.48;101581.22;5034467;28;20039;-83
2022/10/28 08:50:14;;;;;;;18.30;8.47;;;21.20;99.90;;;20.99;81.59;101575.91;5047452;28;20029;-82
2022/10/28 08:53:25;;;;;;;15.18;6.00;;;21.50;99.90;;;20.94;80.15;101576.28;5028859;28;20410;-82
2022/10/28 08:55:53;;;;;;;4.82;2.28;;;21.60;99.90;;;21.18;79.50;101576.19;5030090;28;20034;-83
2022/10/28 08:58:35;;;;;;;9.23;5.60;;;21.70;99.90;;;21.08;78.70;101581.41;5044993;28;20029;-82
2022/10/28 09:01:22;;;;;;;10.38;5.68;;;21.70;99.90;;;21.17;79.05;101581.69;5035216;28;20089;-84
2022/10/28 09:03:52;;;;;;;12.23;5.45;;;21.60;99.90;;;21.17;78.58;101579.00;5027295;28;20080;-83
2022/10/28 09:06:18;;;;;;;10.82;5.18;;;21.50;99.90;;;21.09;78.23;101569.72;5049846;28;20028;-82
2022/10/28 09:08:50;;;;;;;7.78;5.20;;;21.40;99.90;;;21.07;78.94;101574.34;5038395;28;20029;-84
2022/10/28 09:12:04;;;;;;;13.55;5.25;;;21.30;99.90;;;20.95;79.85;101578.00;5043607;28;20052;-83
2022/10/28 09:14:58;;;;;;;13.63;5.72;;;21.30;99.90;;;20.70;80.99;101573.66;5024452;28;20029;-83
2022/10/28 09:18:16;;;;;;;18.73;5.63;;;21.20;99.90;;;20.43;80.92;101569.41;5049278;28;20573;-83
2022/10/28 09:20:50;;;;;;;14.25;5.95;;;21.10;99.90;;;20.33;82.79;101580.91;5043818;28;20038;-84
2022/10/28 09:23:28;;;;;;;12.60;5.30;;;21.10;99.90;;;20.26;83.16;101567.13;5047393;28;20086;-83
2022/10/28 09:26:45;;;;;;;10.85;6.35;;;21.00;99.90;;;20.25;84.06;101571.59;5027518;28;20036;-82
2022/10/28 09:29:37;;;;;;;12.07;6.32;;;21.10;99.90;;;20.20;82.98;101573.78;5004178;28;20651;-83
2022/10/28 09:32:36;;;;;;;12.55;5.65;;;21.10;99.90;;;20.26;83.66;101575.16;5022822;28;20048;-84
2022/10/28 09:35:19;;;;;;;7.85;4.75;;;21.10;99.90;;;20.18;82.31;101556.13;5047284;28;20026;-83
2022/10/28 09:38:11;;;;;;;15.63;6.70;;;21.10;99.90;;;20.23;82.47;101565.50;5022230;28;20451;-82
2022/10/28 09:40:51;;;;;;;15.43;6.32;;;21.00;99.90;;;20.03;81.59;101558.13;5030125;28;20025;-82
2022/10/28 09:43:34;;;;;;;15.88;4.80;;;20.80;99.90;;;19.86;81.96;101568.22;5027895;28;20037;-82
2022/10/28 09:46:12;;;;;;;11.15;5.40;;;20.70;99.90;;;19.82;83.10;101560.53;5026244;28;20521;-82
2022/10/28 09:48:55;;;;;;;11.52;4.95;;;20.60;99.90;;;19.84;83.73;101555.94;5008956;28;20029;-82
2022/10/28 09:52:10;;;;;;;12.48;4.93;;;20.60;99.90;;;19.86;84.65;101556.66;5036122;28;20521;-83
2022/10/28 09:54:51;;;;;;;16.55;5.40;;;20.50;99.90;;;19.80;84.16;101557.97;5025515;28;20493;-83
2022/10/28 09:57:27;;;;;;;15.43;5.35;;;20.50;99.90;;;19.77;84.65;101563.53;5020330;28;20053;-83
2022/10/28 10:00:18;;;;;;;8.07;4.70;;;20.50;99.90;;;19.74;85.08;101563.78;5029658;28;20056;-82
2022/10/28 10:03:00;;;;;;;9.25;2.53;;;20.40;99.90;;;19.72;84.83;101564.81;5027585;28;20497;-83
2022/10/28 10:05:29;;;;;;;4.88;2.05;;;20.40;99.90;;;19.64;84.85;101563.53;5027369;28;20493;-83
2022/10/28 10:08:04;;;;;;;10.85;2.88;;;20.40;99.90;;;19.64;85.41;101570.69;5026891;28;20641;-82
2022/10/28 10:10:57;;;;;;;5.40;2.45;;;20.40;99.90;;;19.67;85.40;101567.78;5035770;28;20033;-83
2022/10/28 10:13:31;;;;;;;16.02;5.43;;;20.40;99.90;;;19.62;84.73;101559.28;5026435;28;20080;-83
2022/10/28 10:16:42;;;;;;;55.45;6.07;;;20.40;99.90;;;19.57;84.72;101556.09;5029917;28;20035;-84
2022/10/28 10:19:18;;;;;;;13.98;5.03;;;20.30;99.90;;;19.46;85.03;101539.00;5018119;28;20103;-82
2022/10/28 10:22:28;;;;;;;15.82;4.70;;;20.20;99.90;;;19.33;84.69;101534.63;5016829;28;20056;-83
2022/10/28 10:24:57;;;;;;;20.58;5.45;;;20.10;99.90;;;19.24;85.30;101528.13;5018834;28;20503;-83
2022/10/28 10:28:17;;;;;;;13.15;5.35;;;20.00;99.90;;;19.15;85.57;101524.28;5010460;28;20034;-84
2022/10/28 10:31:03;;;;;;;11.13;4.90;;;20.00;99.90;;;19.13;86.36;101523.53;5018783;28;20100;-83
2022/10/28 10:33:39;;;;;;;12.63;5.57;;;19.90;99.90;;;19.09;87.35;101524.69;5011443;28;20041;-82
2022/10/28 10:36:27;;;;;;;19.55;6.00;;;19.90;99.90;;;18.99;88.11;101521.00;5024380;28;20069;-83